createdAt,value
2022-11-30T00:00:24.722Z,101332.56
2022-11-30T00:02:58.467Z,101340.63
2022-11-30T00:05:27.089Z,101335.38
2022-11-30T00:07:58.067Z,101342.56
2022-11-30T00:10:26.501Z,101346.16
2022-11-30T00:12:55.788Z,101345.38
2022-11-30T00:15:24.111Z,101351.69
2022-11-30T00:17:58.033Z,101348.28
2022-11-30T00:20:27.016Z,101352.81
2022-11-30T00:23:03.071Z,101349.41
2022-11-30T00:25:31.337Z,101348.66
2022-11-30T00:28:04.911Z,101347.09
2022-11-30T00:30:33.267Z,101348.09
2022-11-30T00:33:01.711Z,101346.44
2022-11-30T00:35:33.034Z,101347.41
2022-11-30T00:38:04.230Z,101343.03
2022-11-30T00:40:32.747Z,101349.34
2022-11-30T00:43:02.756Z,101350.34
2022-11-30T00:45:31.157Z,101355.81
2022-11-30T00:47:59.447Z,101354.25
2022-11-30T00:50:30.831Z,101347.34
2022-11-30T00:52:59.183Z,101349.38
2022-11-30T00:55:30.399Z,101349.59
2022-11-30T00:58:02.073Z,101350.72
2022-11-30T01:00:30.848Z,101359.78
2022-11-30T01:03:03.317Z,101352.03
2022-11-30T01:05:34.126Z,101360.16
2022-11-30T01:08:10.007Z,101366.47
2022-11-30T01:10:42.228Z,101368.31
2022-11-30T01:13:11.625Z,101366.63
2022-11-30T01:15:43.518Z,101376.47
2022-11-30T01:18:16.753Z,101378.38
2022-11-30T01:20:45.619Z,101374.16
2022-11-30T01:23:16.910Z,101380.59
2022-11-30T01:25:59.239Z,101390.63
2022-11-30T01:28:27.628Z,101398.78
2022-11-30T01:31:18.080Z,101396.31
2022-11-30T01:33:51.450Z,101401.72
2022-11-30T01:36:23.641Z,101400.97
2022-11-30T01:38:57.753Z,101399.25
2022-11-30T01:41:32.706Z,101406.47
2022-11-30T01:44:10.351Z,101406.63
2022-11-30T01:46:44.715Z,101411.13
2022-11-30T01:49:35.311Z,101411.22
2022-11-30T01:52:23.791Z,101418.44
2022-11-30T01:55:09.591Z,101422.94
2022-11-30T01:57:52.127Z,101414.16
2022-11-30T02:00:23.960Z,101419.44
2022-11-30T02:03:20.758Z,101413.25
2022-11-30T02:06:00.486Z,101413.34
2022-11-30T02:08:31.296Z,101416.09
2022-11-30T02:11:07.090Z,101412.66
2022-11-30T02:14:01.233Z,101411.88
2022-11-30T02:17:13.500Z,101417.16
2022-11-30T02:20:09.273Z,101416.16
2022-11-30T02:22:46.541Z,101415.25
2022-11-30T02:25:20.525Z,101412.56
2022-11-30T02:28:04.186Z,101420.50
2022-11-30T02:30:44.080Z,101420.56
2022-11-30T02:33:19.943Z,101424.13
2022-11-30T02:35:58.346Z,101435.56
2022-11-30T02:38:37.351Z,101439.13
2022-11-30T02:41:16.566Z,101438.34
2022-11-30T02:43:48.484Z,101453.38
2022-11-30T02:46:40.901Z,101453.38
2022-11-30T02:49:57.060Z,101456.09
2022-11-30T02:52:27.321Z,101457.13
2022-11-30T02:55:15.580Z,101455.44
2022-11-30T02:57:44.115Z,101452.91
2022-11-30T03:00:20.260Z,101454.78
2022-11-30T03:02:48.787Z,101458.41
2022-11-30T03:05:17.156Z,101462.97
2022-11-30T03:07:53.548Z,101462.19
2022-11-30T03:10:22.168Z,101458.78
2022-11-30T03:12:50.606Z,101461.50
2022-11-30T03:15:20.990Z,101462.44
2022-11-30T03:17:52.234Z,101466.88
2022-11-30T03:20:23.464Z,101467.78
2022-11-30T03:22:54.346Z,101475.75
2022-11-30T03:25:22.571Z,101485.53
2022-11-30T03:27:53.497Z,101481.22
2022-11-30T03:30:22.201Z,101482.13
2022-11-30T03:32:56.201Z,101478.63
2022-11-30T03:35:31.958Z,101478.72
2022-11-30T03:38:06.030Z,101484.06
2022-11-30T03:40:37.176Z,101483.25
2022-11-30T03:43:16.363Z,101479.72
2022-11-30T03:45:53.792Z,101474.50
2022-11-30T03:48:26.586Z,101471.91
2022-11-30T03:50:59.432Z,101469.31
2022-11-30T03:53:27.731Z,101484.34
2022-11-30T03:56:12.712Z,101479.97
2022-11-30T03:58:42.582Z,101486.09
2022-11-30T04:01:40.684Z,101486.16
2022-11-30T04:04:11.792Z,101485.31
2022-11-30T04:06:45.597Z,101487.16
2022-11-30T04:09:18.154Z,101480.22
2022-11-30T04:12:02.958Z,101486.44
2022-11-30T04:14:40.426Z,101483.84
2022-11-30T04:17:08.751Z,101483.00
2022-11-30T04:19:40.036Z,101481.22
2022-11-30T04:22:08.434Z,101475.13
2022-11-30T04:24:45.365Z,101489.25
2022-11-30T04:27:18.843Z,101491.94
2022-11-30T04:29:53.064Z,101484.06
2022-11-30T04:32:21.387Z,101487.63
2022-11-30T04:34:51.777Z,101480.63
2022-11-30T04:37:22.399Z,101489.47
2022-11-30T04:39:59.791Z,101496.56
2022-11-30T04:42:33.530Z,101494.84
2022-11-30T04:45:06.751Z,101505.47
2022-11-30T04:47:42.641Z,101504.63
2022-11-30T04:50:13.545Z,101504.69
2022-11-30T04:52:53.674Z,101506.47
2022-11-30T04:55:28.839Z,101506.47
2022-11-30T04:58:23.565Z,101510.03
2022-11-30T05:00:56.421Z,101503.88
2022-11-30T05:03:27.602Z,101510.94
2022-11-30T05:05:57.701Z,101506.56
2022-11-30T05:08:34.497Z,101505.72
2022-11-30T05:11:15.782Z,101509.22
2022-11-30T05:13:49.030Z,101506.56
2022-11-30T05:16:25.021Z,101502.22
2022-11-30T05:18:57.830Z,101500.47
2022-11-30T05:21:33.827Z,101506.66
2022-11-30T05:24:18.166Z,101516.34
2022-11-30T05:26:54.583Z,101519.03
2022-11-30T05:29:25.403Z,101514.63
2022-11-30T05:32:00.643Z,101525.19
2022-11-30T05:34:41.311Z,101530.47
2022-11-30T05:37:21.227Z,101536.63
2022-11-30T05:39:49.506Z,101541.91
2022-11-30T05:42:32.180Z,101540.19
2022-11-30T05:45:05.576Z,101539.31
2022-11-30T05:47:46.791Z,101543.72
2022-11-30T05:50:16.880Z,101547.22
2022-11-30T05:53:07.846Z,101542.88
2022-11-30T05:55:39.267Z,101543.75
2022-11-30T05:58:18.176Z,101544.66
2022-11-30T06:03:37.543Z,101552.56
2022-11-30T06:06:12.054Z,101556.09
2022-11-30T06:11:35.633Z,101565.75
2022-11-30T06:14:12.634Z,101568.41
2022-11-30T06:17:10.446Z,101571.00
2022-11-30T06:19:49.978Z,101566.63
2022-11-30T06:22:24.511Z,101560.50
2022-11-30T06:24:57.206Z,101563.13
2022-11-30T06:30:26.731Z,101562.25
2022-11-30T06:33:09.103Z,101564.88
2022-11-30T06:35:46.837Z,101568.41
2022-11-30T06:38:27.403Z,101564.00
2022-11-30T06:41:17.173Z,101560.50
2022-11-30T06:43:52.967Z,101555.25
2022-11-30T06:46:30.990Z,101550.84
2022-11-30T06:49:15.884Z,101561.38
2022-11-30T06:51:55.839Z,101561.38
2022-11-30T06:54:27.146Z,101558.75
2022-11-30T06:57:04.161Z,101557.84
2022-11-30T06:59:40.925Z,101564.88
2022-11-30T07:02:19.210Z,101564.88
2022-11-30T07:04:52.737Z,101563.13
2022-11-30T07:07:26.451Z,101558.75
2022-11-30T07:10:10.462Z,101559.59
2022-11-30T07:12:48.116Z,101556.09
2022-11-30T07:15:31.146Z,101560.47
2022-11-30T07:18:02.774Z,101563.09
2022-11-30T07:20:40.228Z,101571.84
2022-11-30T07:23:32.693Z,101575.38
2022-11-30T07:26:08.085Z,101572.72
2022-11-30T07:28:49.221Z,101566.63
2022-11-30T07:31:39.493Z,101568.31
2022-11-30T07:34:14.281Z,101563.06
2022-11-30T07:39:49.388Z,101558.72
2022-11-30T07:42:32.082Z,101558.69
2022-11-30T07:45:02.552Z,101564.81
2022-11-30T07:47:37.618Z,101558.66
2022-11-30T07:50:35.663Z,101565.69
2022-11-30T07:53:16.621Z,101566.53
2022-11-30T07:55:47.834Z,101566.53
2022-11-30T07:58:26.198Z,101565.66
2022-11-30T08:01:06.594Z,101557.75
2022-11-30T08:03:40.388Z,101556.88
2022-11-30T08:06:17.388Z,101553.38
2022-11-30T08:08:46.697Z,101551.63
2022-11-30T08:11:36.689Z,101541.09
2022-11-30T08:14:13.514Z,101539.31
2022-11-30T08:16:58.451Z,101539.28
2022-11-30T08:19:41.648Z,101525.28
2022-11-30T08:22:10.987Z,101529.66
2022-11-30T08:24:52.265Z,101527.88
2022-11-30T08:27:30.346Z,101530.50
2022-11-30T08:30:06.204Z,101530.47
2022-11-30T08:32:59.577Z,101526.09
2022-11-30T08:35:43.262Z,101527.84
2022-11-30T08:38:19.950Z,101528.72
2022-11-30T08:40:53.937Z,101516.47
2022-11-30T08:43:30.205Z,101517.31
2022-11-30T08:46:27.388Z,101509.41
2022-11-30T08:49:25.770Z,101517.28
2022-11-30T08:52:20.098Z,101515.53
2022-11-30T08:54:56.968Z,101506.72
2022-11-30T08:57:32.911Z,101509.34
2022-11-30T09:00:07.983Z,101500.56
2022-11-30T09:03:04.385Z,101500.56
2022-11-30T09:05:38.492Z,101499.66
2022-11-30T09:08:18.620Z,101511.03
2022-11-30T09:11:04.426Z,101505.75
2022-11-30T09:13:44.387Z,101506.66
2022-11-30T09:16:50.263Z,101500.47
2022-11-30T09:19:23.398Z,101500.47
2022-11-30T09:22:14.351Z,101494.38
2022-11-30T09:24:48.529Z,101485.59
2022-11-30T09:27:22.000Z,101489.13
2022-11-30T09:30:15.477Z,101481.22
2022-11-30T09:33:01.504Z,101480.34
2022-11-30T09:35:34.586Z,101469.84
2022-11-30T09:38:12.857Z,101471.56
2022-11-30T09:40:50.746Z,101475.97
2022-11-30T09:43:51.552Z,101475.06
2022-11-30T09:46:36.470Z,101472.44
2022-11-30T09:52:46.912Z,101470.69
2022-11-30T09:55:42.253Z,101475.09
2022-11-30T09:58:38.419Z,101480.34
2022-11-30T10:01:19.004Z,101488.22
2022-11-30T10:03:55.557Z,101494.34
2022-11-30T10:07:23.184Z,101481.13
2022-11-30T10:10:32.110Z,101481.94
2022-11-30T10:18:11.956Z,101487.19
2022-11-30T10:20:39.327Z,101481.03
2022-11-30T10:23:44.537Z,101478.41
2022-11-30T10:26:33.352Z,101478.41
2022-11-30T10:29:47.563Z,101482.72
2022-11-30T10:32:31.717Z,101485.34
2022-11-30T10:35:30.081Z,101490.56
2022-11-30T10:38:24.195Z,101503.63
2022-11-30T10:44:41.626Z,101506.16
2022-11-30T10:47:42.986Z,101504.38
2022-11-30T10:50:29.161Z,101503.50
2022-11-30T10:53:18.478Z,101487.75
2022-11-30T10:56:36.403Z,101486.00
2022-11-30T10:59:35.496Z,101481.63
2022-11-30T11:02:49.869Z,101484.22
2022-11-30T11:05:54.827Z,101481.56
2022-11-30T11:08:54.312Z,101473.66
2022-11-30T11:11:45.787Z,101476.22
2022-11-30T11:14:31.369Z,101480.59
2022-11-30T11:17:46.030Z,101470.97
2022-11-30T11:21:12.133Z,101472.69
2022-11-30T11:23:57.437Z,101469.16
2022-11-30T11:26:43.945Z,101474.41
2022-11-30T11:29:43.827Z,101468.28
2022-11-30T11:35:53.400Z,101470.91
2022-11-30T11:38:41.458Z,101472.59
2022-11-30T11:41:37.551Z,101454.28
2022-11-30T11:45:21.509Z,101446.44
2022-11-30T11:48:28.647Z,101440.31
2022-11-30T11:51:25.061Z,101436.81
2022-11-30T11:54:26.546Z,101435.03
2022-11-30T11:57:24.900Z,101437.63
2022-11-30T12:00:20.516Z,101432.31
2022-11-30T12:03:23.136Z,101432.28
2022-11-30T12:09:59.895Z,101445.34
2022-11-30T12:12:50.660Z,101448.75
2022-11-30T12:19:32.618Z,101446.09
2022-11-30T12:22:40.431Z,101443.50
2022-11-30T12:25:51.202Z,101449.72
2022-11-30T12:29:12.512Z,101443.50
2022-11-30T12:35:58.816Z,101453.78
2022-11-30T12:42:27.304Z,101451.06
2022-11-30T12:48:45.268Z,101459.91
2022-11-30T12:51:42.800Z,101459.03
2022-11-30T12:54:25.501Z,101455.53
2022-11-30T12:57:59.916Z,101461.63
2022-11-30T13:01:02.262Z,101470.28
2022-11-30T13:04:47.165Z,101472.84
2022-11-30T13:08:13.917Z,101469.25
2022-11-30T13:15:30.478Z,101474.53
2022-11-30T13:17:36.840Z,101478.91
2022-11-30T13:21:06.834Z,101467.59
2022-11-30T13:24:32.995Z,101467.63
2022-11-30T13:27:50.244Z,101467.66
2022-11-30T13:31:35.960Z,101459.88
2022-11-30T13:34:30.311Z,101454.63
2022-11-30T13:37:38.817Z,101462.44
2022-11-30T13:40:43.630Z,101469.25
2022-11-30T13:44:12.926Z,101469.19
2022-11-30T13:47:28.878Z,101470.00
2022-11-30T13:50:37.955Z,101470.75
2022-11-30T13:57:09.688Z,101474.19
2022-11-30T14:09:56.531Z,101473.25
2022-11-30T14:13:38.290Z,101465.41
2022-11-30T14:19:31.441Z,101468.00
2022-11-30T14:24:23.527Z,101465.38
2022-11-30T14:29:31.752Z,101467.31
2022-11-30T14:33:08.940Z,101468.16
2022-11-30T14:36:01.352Z,101482.03
2022-11-30T14:38:52.119Z,101468.84
2022-11-30T14:42:08.407Z,101476.63
2022-11-30T14:54:44.390Z,101486.13
2022-11-30T14:58:32.185Z,101487.88
2022-11-30T15:01:25.363Z,101488.84
2022-11-30T15:04:44.145Z,101490.59
2022-11-30T15:14:41.929Z,101490.59
2022-11-30T15:20:35.598Z,101498.44
2022-11-30T15:23:53.303Z,101496.75
2022-11-30T15:26:47.480Z,101487.97
2022-11-30T15:31:23.070Z,101484.53
2022-11-30T15:35:22.328Z,101488.91
2022-11-30T15:36:46.405Z,101488.97
2022-11-30T15:39:49.543Z,101500.38
2022-11-30T15:46:01.458Z,101496.19
2022-11-30T15:48:59.605Z,101498.00
2022-11-30T15:52:57.586Z,101495.44
2022-11-30T15:55:39.268Z,101497.28
2022-11-30T16:02:26.726Z,101487.88
2022-11-30T16:05:37.410Z,101488.00
2022-11-30T16:08:29.776Z,101495.03
2022-11-30T16:17:16.313Z,101499.66
2022-11-30T16:20:29.239Z,101496.25
2022-11-30T16:23:24.018Z,101498.91
2022-11-30T16:25:58.974Z,101499.88
2022-11-30T16:29:12.302Z,101499.91
2022-11-30T16:32:30.243Z,101501.72
2022-11-30T16:35:33.749Z,101499.16
2022-11-30T16:38:28.568Z,101501.84
2022-11-30T16:41:44.789Z,101508.94
2022-11-30T16:44:56.403Z,101511.63
2022-11-30T16:50:59.020Z,101510.00
2022-11-30T16:53:53.803Z,101506.53
2022-11-30T16:56:59.822Z,101504.00
2022-11-30T16:59:49.253Z,101499.66
2022-11-30T17:02:38.393Z,101502.34
2022-11-30T17:05:44.765Z,101501.53
2022-11-30T17:08:54.453Z,101498.09
2022-11-30T17:12:12.665Z,101496.38
2022-11-30T17:15:01.684Z,101501.66
2022-11-30T17:17:59.278Z,101506.94
2022-11-30T17:21:10.885Z,101506.09
2022-11-30T17:23:34.277Z,101508.72
2022-11-30T17:26:20.085Z,101511.38
2022-11-30T17:29:36.472Z,101509.59
2022-11-30T17:32:07.905Z,101513.09
2022-11-30T17:34:47.473Z,101521.00
2022-11-30T17:37:38.641Z,101517.47
2022-11-30T17:40:20.985Z,101509.56
2022-11-30T17:42:55.930Z,101504.25
2022-11-30T17:45:40.264Z,101500.75
2022-11-30T17:48:52.300Z,101505.09
2022-11-30T17:51:30.192Z,101511.22
2022-11-30T17:54:09.128Z,101506.78
2022-11-30T17:57:14.521Z,101503.25
2022-11-30T17:59:49.690Z,101504.97
2022-11-30T18:05:27.005Z,101492.53
2022-11-30T18:08:17.629Z,101494.31
2022-11-30T18:10:51.091Z,101487.19
2022-11-30T18:13:35.065Z,101489.72
2022-11-30T18:16:27.567Z,101483.47
2022-11-30T18:18:59.415Z,101487.75
2022-11-30T18:21:35.849Z,101480.66
2022-11-30T18:24:13.727Z,101476.22
2022-11-30T18:26:47.216Z,101475.31
2022-11-30T18:29:18.559Z,101466.41
2022-11-30T18:32:05.790Z,101469.81
2022-11-30T18:34:44.506Z,101467.97
2022-11-30T18:37:20.844Z,101474.06
2022-11-30T18:40:04.802Z,101465.19
2022-11-30T18:45:26.026Z,101462.28
2022-11-30T18:48:18.909Z,101464.81
2022-11-30T18:51:01.337Z,101464.66
2022-11-30T18:53:32.831Z,101462.00
2022-11-30T18:56:15.307Z,101454.78
2022-11-30T18:58:54.826Z,101457.28
2022-11-30T19:01:32.257Z,101458.91
2022-11-30T19:04:12.319Z,101449.97
2022-11-30T19:06:47.710Z,101447.19
2022-11-30T19:09:26.125Z,101451.44
2022-11-30T19:12:12.367Z,101448.56
2022-11-30T19:14:46.890Z,101447.47
2022-11-30T19:17:15.036Z,101438.50
2022-11-30T19:19:58.029Z,101433.13
2022-11-30T19:22:33.901Z,101427.66
2022-11-30T19:25:05.233Z,101427.53
2022-11-30T19:27:41.506Z,101420.25
2022-11-30T19:30:13.391Z,101418.22
2022-11-30T19:32:43.659Z,101407.44
2022-11-30T19:35:11.961Z,101405.56
2022-11-30T19:37:45.334Z,101401.03
2022-11-30T19:40:22.935Z,101402.59
2022-11-30T19:42:58.443Z,101389.28
2022-11-30T19:45:26.823Z,101382.91
2022-11-30T19:47:55.150Z,101366.75
2022-11-30T19:50:32.073Z,101363.97
2022-11-30T19:53:01.223Z,101360.34
2022-11-30T19:55:32.544Z,101352.28
2022-11-30T19:58:07.455Z,101346.75
2022-11-30T20:00:39.475Z,101342.97
2022-11-30T20:03:12.749Z,101336.56
2022-11-30T20:06:04.246Z,101331.09
2022-11-30T20:08:41.069Z,101324.69
2022-11-30T20:11:13.240Z,101320.06
2022-11-30T20:13:44.037Z,101314.47
2022-11-30T20:16:21.998Z,101307.16
2022-11-30T20:19:04.365Z,101310.50
2022-11-30T20:21:37.306Z,101305.88
2022-11-30T20:24:17.019Z,101304.81
2022-11-30T20:26:51.307Z,101285.16
2022-11-30T20:29:20.847Z,101289.50
2022-11-30T20:32:09.388Z,101280.56
2022-11-30T20:34:44.646Z,101279.38
2022-11-30T20:37:13.607Z,101272.22
2022-11-30T20:39:54.580Z,101261.34
2022-11-30T20:42:25.891Z,101256.63
2022-11-30T20:44:54.244Z,101251.97
2022-11-30T20:47:29.893Z,101246.56
2022-11-30T20:50:05.019Z,101242.16
2022-11-30T20:52:33.383Z,101242.78
2022-11-30T20:55:03.535Z,101237.13
2022-11-30T20:57:34.820Z,101227.16
2022-11-30T21:00:13.087Z,101236.69
2022-11-30T21:02:41.844Z,101229.38
2022-11-30T21:05:10.584Z,101227.50
2022-11-30T21:07:57.178Z,101231.66
2022-11-30T21:10:30.379Z,101228.63
2022-11-30T21:12:58.838Z,101222.13
2022-11-30T21:15:32.027Z,101222.84
2022-11-30T21:18:03.444Z,101218.28
2022-11-30T21:20:36.428Z,101213.56
2022-11-30T21:23:07.623Z,101212.38
2022-11-30T21:25:42.015Z,101207.72
2022-11-30T21:28:20.375Z,101199.50
2022-11-30T21:31:07.998Z,101191.19
2022-11-30T21:33:36.390Z,101181.19
2022-11-30T21:36:12.569Z,101181.91
2022-11-30T21:38:44.944Z,101175.38
2022-11-30T21:41:16.845Z,101167.97
2022-11-30T21:43:47.791Z,101157.81
2022-11-30T21:46:19.208Z,101161.94
2022-11-30T21:49:05.257Z,101166.25
2022-11-30T21:51:38.443Z,101164.41
2022-11-30T21:54:23.235Z,101156.22
2022-11-30T21:56:54.670Z,101152.63
2022-11-30T21:59:25.222Z,101145.38
2022-11-30T22:01:53.520Z,101150.56
2022-11-30T22:04:27.820Z,101137.91
2022-11-30T22:06:58.495Z,101142.28
2022-11-30T22:09:26.824Z,101144.09
2022-11-30T22:11:58.665Z,101134.28
2022-11-30T22:14:35.786Z,101127.94
2022-11-30T22:17:04.197Z,101124.47
2022-11-30T22:19:32.579Z,101114.06
2022-11-30T22:22:03.954Z,101095.50
2022-11-30T22:24:34.827Z,101107.91
2022-11-30T22:27:03.148Z,101099.97
2022-11-30T22:29:37.070Z,101103.69
2022-11-30T22:32:06.178Z,101107.38
2022-11-30T22:34:34.831Z,101104.75
2022-11-30T22:37:05.627Z,101107.38
2022-11-30T22:39:33.978Z,101088.56
2022-11-30T22:42:07.464Z,101088.38
2022-11-30T22:44:38.019Z,101098.94
2022-11-30T22:47:08.894Z,101112.94
2022-11-30T22:49:40.502Z,101105.00
2022-11-30T22:52:11.084Z,101106.00
2022-11-30T22:54:39.502Z,101107.03
2022-11-30T22:57:16.795Z,101108.94
2022-11-30T22:59:45.410Z,101111.09
2022-11-30T23:02:24.350Z,101113.19
2022-11-30T23:04:52.744Z,101120.75
2022-11-30T23:07:21.093Z,101121.81
2022-11-30T23:09:51.375Z,101113.22
2022-11-30T23:12:57.515Z,101112.63
2022-11-30T23:15:17.310Z,101119.94
2022-11-30T23:17:45.679Z,101113.81
2022-11-30T23:20:16.936Z,101121.03
2022-11-30T23:22:54.290Z,101121.97
2022-11-30T23:25:23.186Z,101113.06
2022-11-30T23:27:51.484Z,101112.13
2022-11-30T23:30:24.499Z,101119.25
2022-11-30T23:32:58.843Z,101115.09
2022-11-30T23:35:34.186Z,101120.59
2022-11-30T23:38:11.740Z,101122.50
2022-11-30T23:40:43.144Z,101112.16
2022-11-30T23:43:11.479Z,101115.84
2022-11-30T23:45:45.585Z,101118.63
2022-11-30T23:48:17.081Z,101105.41
2022-11-30T23:50:46.309Z,101095.81
2022-11-30T23:53:26.210Z,101096.84
2022-11-30T23:55:57.545Z,101105.00
2022-11-30T23:58:27.671Z,101113.16
